Check out our new PWSWeather beta!
PWSweather.com
Personal Weather Stations
Station Observations

SkegnessGB

Lat: 53.147585, Lon: 0.345774

Elevation: 18

Station Type: Fine Offset WH3080

http://www.skegnessweather.info/

High Low Average
Temperature 47.1°F8.4°C 38.1°F3.4°C 41.5°F5.3°C
Dew Point 41.4°F5.2°C 35.3°F1.8°C 37.5°F3.1°C
Winds 11.8 mph 19.0 kmh Calm Calm 6.0 mph SW9.7 kmh SW
Wind Gusts 14.3 mph23.0 kmh -- 7.0 mph11.3 kmh
Humidity 91% 75% 86%
Pressure 30.37 in1028.4 mb 30.21 in1023.0 mb -
Precipitation 0.00 in0.0 mm - -
Hour Temp Dew Point Humidity Winds Wind Gusts Pressure Precip Precip Rate Daily Precip Total
12:00 AM 40.8°F4.9°C 37.3°F2.9°C 87% 8.0 mph SW12.9 kmh SW 9.1 mph14.6 kmh 30.32 in1026.8 mb 0.00 in0.0 mm 0.00 in0.0 mm 0.00 in0.0 mm
12:10 AM 40.6°F4.8°C 37.1°F2.8°C 87% 10.6 mph S17.1 kmh S 11.8 mph19.0 kmh 30.32 in1026.8 mb 0.00 in0.0 mm 0.00 in0.0 mm 0.00 in0.0 mm
12:20 AM 40.5°F4.7°C 36.9°F2.7°C 87% 10.0 mph SW16.1 kmh SW 10.8 mph17.4 kmh 30.32 in1026.8 mb 0.00 in0.0 mm 0.00 in0.0 mm 0.00 in0.0 mm
12:30 AM 40.5°F4.7°C 36.9°F2.7°C 87% 9.6 mph WSW15.4 kmh WSW 10.8 mph17.4 kmh 30.31 in1026.4 mb 0.00 in0.0 mm 0.00 in0.0 mm 0.00 in0.0 mm
12:40 AM 40.3°F4.6°C 36.7°F2.6°C 87% 9.4 mph SW15.1 kmh SW 9.1 mph14.6 kmh 30.31 in1026.4 mb 0.00 in0.0 mm 0.00 in0.0 mm 0.00 in0.0 mm
12:50 AM 40.1°F4.5°C 36.8°F2.7°C 88% 9.5 mph SW15.3 kmh SW 10.1 mph16.3 kmh 30.31 in1026.4 mb 0.00 in0.0 mm 0.00 in0.0 mm 0.00 in0.0 mm
01:00 AM 40.1°F4.5°C 36.8°F2.7°C 88% 10.1 mph SW16.3 kmh SW 10.8 mph17.4 kmh 30.31 in1026.4 mb 0.00 in0.0 mm 0.00 in0.0 mm 0.00 in0.0 mm
01:10 AM 39.7°F4.3°C 36.5°F2.5°C 88% 9.4 mph WSW15.1 kmh WSW 9.1 mph14.6 kmh 30.31 in1026.4 mb 0.00 in0.0 mm 0.00 in0.0 mm 0.00 in0.0 mm
01:20 AM 39.7°F4.3°C 36.5°F2.5°C 88% 10.2 mph SW16.4 kmh SW 10.1 mph16.3 kmh 30.31 in1026.4 mb 0.00 in0.0 mm 0.00 in0.0 mm 0.00 in0.0 mm
01:30 AM 39.6°F4.2°C 36.3°F2.4°C 88% 10.7 mph SW17.2 kmh SW 10.8 mph17.4 kmh 30.31 in1026.4 mb 0.00 in0.0 mm 0.00 in0.0 mm 0.00 in0.0 mm
01:40 AM 39.4°F4.1°C 36.1°F2.3°C 88% 8.8 mph WSW14.2 kmh WSW 8.4 mph13.5 kmh 30.31 in1026.4 mb 0.00 in0.0 mm 0.00 in0.0 mm 0.00 in0.0 mm
01:50 AM 39.2°F4.0°C 35.9°F2.2°C 88% 8.5 mph SW13.7 kmh SW 10.1 mph16.3 kmh 30.31 in1026.4 mb 0.00 in0.0 mm 0.00 in0.0 mm 0.00 in0.0 mm
02:00 AM 39.2°F4.0°C 35.9°F2.2°C 88% 9.9 mph S15.9 kmh S 9.1 mph14.6 kmh 30.31 in1026.4 mb 0.00 in0.0 mm 0.00 in0.0 mm 0.00 in0.0 mm
02:10 AM 39.2°F4.0°C 35.9°F2.2°C 88% 11.2 mph SW18.0 kmh SW 12.5 mph20.1 kmh 30.31 in1026.4 mb 0.00 in0.0 mm 0.00 in0.0 mm 0.00 in0.0 mm
02:20 AM 39.0°F3.9°C 35.8°F2.1°C 88% 11.1 mph S17.9 kmh S 10.8 mph17.4 kmh 30.30 in1026.1 mb 0.00 in0.0 mm 0.00 in0.0 mm 0.00 in0.0 mm
02:30 AM 39.0°F3.9°C 36.1°F2.3°C 89% 10.7 mph S17.2 kmh S 11.8 mph19.0 kmh 30.30 in1026.1 mb 0.00 in0.0 mm 0.00 in0.0 mm 0.00 in0.0 mm
02:40 AM 39.0°F3.9°C 36.1°F2.3°C 89% 10.0 mph SW16.1 kmh SW 11.8 mph19.0 kmh 30.29 in1025.7 mb 0.00 in0.0 mm 0.00 in0.0 mm 0.00 in0.0 mm
02:50 AM 39.0°F3.9°C 36.1°F2.3°C 89% 8.7 mph SSW14.0 kmh SSW 9.1 mph14.6 kmh 30.29 in1025.7 mb 0.00 in0.0 mm 0.00 in0.0 mm 0.00 in0.0 mm
03:00 AM 38.8°F3.8°C 35.9°F2.2°C 89% 9.5 mph SW15.3 kmh SW 10.1 mph16.3 kmh 30.30 in1026.1 mb 0.00 in0.0 mm 0.00 in0.0 mm 0.00 in0.0 mm
03:10 AM 38.8°F3.8°C 35.9°F2.2°C 89% 9.6 mph NW15.4 kmh NW 9.1 mph14.6 kmh 30.30 in1026.1 mb 0.00 in0.0 mm 0.00 in0.0 mm 0.00 in0.0 mm
03:20 AM 38.7°F3.7°C 35.7°F2.1°C 89% 7.6 mph WSW12.2 kmh WSW 8.4 mph13.5 kmh 30.30 in1026.1 mb 0.00 in0.0 mm 0.00 in0.0 mm 0.00 in0.0 mm
03:30 AM 38.5°F3.6°C 35.5°F1.9°C 89% 8.2 mph WSW13.2 kmh WSW 7.6 mph12.2 kmh 30.29 in1025.7 mb 0.00 in0.0 mm 0.00 in0.0 mm 0.00 in0.0 mm
03:40 AM 38.3°F3.5°C 35.3°F1.8°C 89% 9.0 mph SSW14.5 kmh SSW 8.4 mph13.5 kmh 30.29 in1025.7 mb 0.00 in0.0 mm 0.00 in0.0 mm 0.00 in0.0 mm
03:50 AM 38.5°F3.6°C 35.5°F1.9°C 89% 8.9 mph SW14.3 kmh SW 10.8 mph17.4 kmh 30.29 in1025.7 mb 0.00 in0.0 mm 0.00 in0.0 mm 0.00 in0.0 mm
04:00 AM 38.8°F3.8°C 35.9°F2.2°C 89% 10.3 mph SW16.6 kmh SW 10.8 mph17.4 kmh 30.29 in1025.7 mb 0.00 in0.0 mm 0.00 in0.0 mm 0.00 in0.0 mm
04:10 AM 38.8°F3.8°C 35.9°F2.2°C 89% 9.6 mph WSW15.4 kmh WSW 10.8 mph17.4 kmh 30.29 in1025.7 mb 0.00 in0.0 mm 0.00 in0.0 mm 0.00 in0.0 mm
04:20 AM 38.8°F3.8°C 36.2°F2.3°C 90% 9.9 mph SW15.9 kmh SW 12.5 mph20.1 kmh 30.29 in1025.7 mb 0.00 in0.0 mm 0.00 in0.0 mm 0.00 in0.0 mm
04:30 AM 38.8°F3.8°C 36.2°F2.3°C 90% 11.8 mph SSW19.0 kmh SSW 12.5 mph20.1 kmh 30.28 in1025.4 mb 0.00 in0.0 mm 0.00 in0.0 mm 0.00 in0.0 mm
04:40 AM 38.7°F3.7°C 36.0°F2.2°C 90% 10.6 mph S17.1 kmh S 11.8 mph19.0 kmh 30.28 in1025.4 mb 0.00 in0.0 mm 0.00 in0.0 mm 0.00 in0.0 mm
04:50 AM 38.7°F3.7°C 36.0°F2.2°C 90% 10.4 mph SW16.7 kmh SW 10.8 mph17.4 kmh 30.27 in1025.1 mb 0.00 in0.0 mm 0.00 in0.0 mm 0.00 in0.0 mm
05:00 AM 38.7°F3.7°C 36.0°F2.2°C 90% 11.2 mph SW18.0 kmh SW 11.8 mph19.0 kmh 30.28 in1025.4 mb 0.00 in0.0 mm 0.00 in0.0 mm 0.00 in0.0 mm
05:10 AM 38.7°F3.7°C 36.0°F2.2°C 90% 10.9 mph SW17.5 kmh SW 11.8 mph19.0 kmh 30.28 in1025.4 mb 0.00 in0.0 mm 0.00 in0.0 mm 0.00 in0.0 mm
05:20 AM 38.7°F3.7°C 36.0°F2.2°C 90% 9.4 mph S15.1 kmh S 12.5 mph20.1 kmh 30.27 in1025.1 mb 0.00 in0.0 mm 0.00 in0.0 mm 0.00 in0.0 mm
05:30 AM 38.7°F3.7°C 36.0°F2.2°C 90% 10.8 mph SSW17.4 kmh SSW 11.8 mph19.0 kmh 30.28 in1025.4 mb 0.00 in0.0 mm 0.00 in0.0 mm 0.00 in0.0 mm
05:40 AM 38.7°F3.7°C 36.0°F2.2°C 90% 10.1 mph SW16.3 kmh SW 10.8 mph17.4 kmh 30.27 in1025.1 mb 0.00 in0.0 mm 0.00 in0.0 mm 0.00 in0.0 mm
05:50 AM 38.8°F3.8°C 36.2°F2.3°C 90% 11.4 mph SSW18.3 kmh SSW 10.8 mph17.4 kmh 30.27 in1025.1 mb 0.00 in0.0 mm 0.00 in0.0 mm 0.00 in0.0 mm
06:00 AM 38.8°F3.8°C 36.2°F2.3°C 90% 10.7 mph SSW17.2 kmh SSW 12.5 mph20.1 kmh 30.27 in1025.1 mb 0.00 in0.0 mm 0.00 in0.0 mm 0.00 in0.0 mm
06:10 AM 38.7°F3.7°C 36.0°F2.2°C 90% 10.6 mph SSW17.1 kmh SSW 10.8 mph17.4 kmh 30.26 in1024.7 mb 0.00 in0.0 mm 0.00 in0.0 mm 0.00 in0.0 mm
06:20 AM 38.7°F3.7°C 36.0°F2.2°C 90% 9.6 mph SW15.4 kmh SW 14.3 mph23.0 kmh 30.27 in1025.1 mb 0.00 in0.0 mm 0.00 in0.0 mm 0.00 in0.0 mm
06:30 AM 38.7°F3.7°C 36.0°F2.2°C 90% 9.6 mph SSE15.4 kmh SSE 10.1 mph16.3 kmh 30.26 in1024.7 mb 0.00 in0.0 mm 0.00 in0.0 mm 0.00 in0.0 mm
06:40 AM 38.7°F3.7°C 36.0°F2.2°C 90% 10.2 mph SW16.4 kmh SW 11.8 mph19.0 kmh 30.26 in1024.7 mb 0.00 in0.0 mm 0.00 in0.0 mm 0.00 in0.0 mm
06:50 AM 38.7°F3.7°C 36.0°F2.2°C 90% 9.7 mph SW15.6 kmh SW 10.1 mph16.3 kmh 30.26 in1024.7 mb 0.00 in0.0 mm 0.00 in0.0 mm 0.00 in0.0 mm
07:00 AM 38.8°F3.8°C 36.2°F2.3°C 90% 11.8 mph SSW19.0 kmh SSW 11.8 mph19.0 kmh 30.25 in1024.4 mb 0.00 in0.0 mm 0.00 in0.0 mm 0.00 in0.0 mm
07:10 AM 38.8°F3.8°C 36.2°F2.3°C 90% 11.2 mph E18.0 kmh E 10.8 mph17.4 kmh 30.25 in1024.4 mb 0.00 in0.0 mm 0.00 in0.0 mm 0.00 in0.0 mm
07:20 AM 39.0°F3.9°C 36.3°F2.4°C 90% 10.6 mph SW17.1 kmh SW 10.8 mph17.4 kmh 30.25 in1024.4 mb 0.00 in0.0 mm 0.00 in0.0 mm 0.00 in0.0 mm
07:30 AM 39.0°F3.9°C 36.3°F2.4°C 90% 10.3 mph SW16.6 kmh SW 13.3 mph21.4 kmh 30.25 in1024.4 mb 0.00 in0.0 mm 0.00 in0.0 mm 0.00 in0.0 mm
07:40 AM 38.8°F3.8°C 36.2°F2.3°C 90% 8.0 mph SW12.9 kmh SW 10.8 mph17.4 kmh 30.26 in1024.7 mb 0.00 in0.0 mm 0.00 in0.0 mm 0.00 in0.0 mm
07:50 AM 38.7°F3.7°C 36.0°F2.2°C 90% 7.3 mph S11.7 kmh S 9.1 mph14.6 kmh 30.26 in1024.7 mb 0.00 in0.0 mm 0.00 in0.0 mm 0.00 in0.0 mm
08:00 AM 38.5°F3.6°C 35.8°F2.1°C 90% 8.8 mph SSW14.2 kmh SSW 9.1 mph14.6 kmh 30.26 in1024.7 mb 0.00 in0.0 mm 0.00 in0.0 mm 0.00 in0.0 mm
08:10 AM 38.5°F3.6°C 35.8°F2.1°C 90% 9.0 mph S14.5 kmh S 10.8 mph17.4 kmh 30.26 in1024.7 mb 0.00 in0.0 mm 0.00 in0.0 mm 0.00 in0.0 mm
08:20 AM 38.3°F3.5°C 35.6°F2.0°C 90% 8.7 mph S14.0 kmh S 12.5 mph20.1 kmh 30.26 in1024.7 mb 0.00 in0.0 mm 0.00 in0.0 mm 0.00 in0.0 mm
08:30 AM 38.1°F3.4°C 35.4°F1.9°C 90% 9.4 mph WSW15.1 kmh WSW 12.5 mph20.1 kmh 30.26 in1024.7 mb 0.00 in0.0 mm 0.00 in0.0 mm 0.00 in0.0 mm
08:40 AM 38.1°F3.4°C 35.4°F1.9°C 90% 7.6 mph SSE12.2 kmh SSE 8.4 mph13.5 kmh 30.27 in1025.1 mb 0.00 in0.0 mm 0.00 in0.0 mm 0.00 in0.0 mm
08:50 AM 38.1°F3.4°C 35.4°F1.9°C 90% 7.5 mph SW12.1 kmh SW 9.1 mph14.6 kmh 30.27 in1025.1 mb 0.00 in0.0 mm 0.00 in0.0 mm 0.00 in0.0 mm
09:00 AM 38.1°F3.4°C 35.4°F1.9°C 90% 6.8 mph S10.9 kmh S 7.6 mph12.2 kmh 30.27 in1025.1 mb 0.00 in0.0 mm 0.00 in0.0 mm 0.00 in0.0 mm
09:10 AM 38.3°F3.5°C 35.6°F2.0°C 90% 5.8 mph SW9.3 kmh SW 8.4 mph13.5 kmh 30.27 in1025.1 mb 0.00 in0.0 mm 0.00 in0.0 mm 0.00 in0.0 mm
09:20 AM 38.3°F3.5°C 35.6°F2.0°C 90% 8.4 mph S13.5 kmh S 8.4 mph13.5 kmh 30.27 in1025.1 mb 0.00 in0.0 mm 0.00 in0.0 mm 0.00 in0.0 mm
09:30 AM 38.5°F3.6°C 35.8°F2.1°C 90% 7.8 mph S12.6 kmh S 8.4 mph13.5 kmh 30.27 in1025.1 mb 0.00 in0.0 mm 0.00 in0.0 mm 0.00 in0.0 mm
09:40 AM 38.8°F3.8°C 36.2°F2.3°C 90% 8.7 mph SW14.0 kmh SW 9.1 mph14.6 kmh 30.26 in1024.7 mb 0.00 in0.0 mm 0.00 in0.0 mm 0.00 in0.0 mm
09:50 AM 38.8°F3.8°C 36.2°F2.3°C 90% 8.4 mph SSE13.5 kmh SSE 9.1 mph14.6 kmh 30.26 in1024.7 mb 0.00 in0.0 mm 0.00 in0.0 mm 0.00 in0.0 mm
10:00 AM 38.8°F3.8°C 36.2°F2.3°C 90% 7.3 mph SW11.7 kmh SW 9.1 mph14.6 kmh 30.26 in1024.7 mb 0.00 in0.0 mm 0.00 in0.0 mm 0.00 in0.0 mm
10:10 AM 39.4°F4.1°C 37.0°F2.8°C 91% 7.3 mph S11.7 kmh S 9.1 mph14.6 kmh 30.26 in1024.7 mb 0.00 in0.0 mm 0.00 in0.0 mm 0.00 in0.0 mm
10:20 AM 39.7°F4.3°C 37.3°F2.9°C 91% 8.5 mph S13.7 kmh S 8.4 mph13.5 kmh 30.26 in1024.7 mb 0.00 in0.0 mm 0.00 in0.0 mm 0.00 in0.0 mm
10:30 AM 40.1°F4.5°C 37.7°F3.2°C 91% 8.1 mph S13.0 kmh S 10.1 mph16.3 kmh 30.25 in1024.4 mb 0.00 in0.0 mm 0.00 in0.0 mm 0.00 in0.0 mm
10:40 AM 40.5°F4.7°C 38.0°F3.3°C 91% 10.6 mph S17.1 kmh S 10.1 mph16.3 kmh 30.24 in1024.0 mb 0.00 in0.0 mm 0.00 in0.0 mm 0.00 in0.0 mm
10:50 AM 41.0°F5.0°C 38.6°F3.7°C 91% 7.8 mph SW12.6 kmh SW 10.1 mph16.3 kmh 30.25 in1024.4 mb 0.00 in0.0 mm 0.00 in0.0 mm 0.00 in0.0 mm
11:00 AM 41.5°F5.3°C 39.1°F3.9°C 91% 8.7 mph SW14.0 kmh SW 9.1 mph14.6 kmh 30.24 in1024.0 mb 0.00 in0.0 mm 0.00 in0.0 mm 0.00 in0.0 mm
11:10 AM 42.1°F5.6°C 39.6°F4.2°C 91% 8.3 mph W13.4 kmh W 9.1 mph14.6 kmh 30.25 in1024.4 mb 0.00 in0.0 mm 0.00 in0.0 mm 0.00 in0.0 mm
11:20 AM 42.6°F5.9°C 40.2°F4.6°C 91% 7.7 mph S12.4 kmh S 7.6 mph12.2 kmh 30.24 in1024.0 mb 0.00 in0.0 mm 0.00 in0.0 mm 0.00 in0.0 mm
11:30 AM 43.3°F6.3°C 40.9°F4.9°C 91% 8.0 mph WSW12.9 kmh WSW 10.1 mph16.3 kmh 30.25 in1024.4 mb 0.00 in0.0 mm 0.00 in0.0 mm 0.00 in0.0 mm
11:40 AM 43.7°F6.5°C 41.2°F5.1°C 91% 7.5 mph SW12.1 kmh SW 9.1 mph14.6 kmh 30.23 in1023.7 mb 0.00 in0.0 mm 0.00 in0.0 mm 0.00 in0.0 mm
11:50 AM 43.9°F6.6°C 41.4°F5.2°C 91% 7.6 mph SSW12.2 kmh SSW 9.1 mph14.6 kmh 30.23 in1023.7 mb 0.00 in0.0 mm 0.00 in0.0 mm 0.00 in0.0 mm
12:00 PM 44.1°F6.7°C 41.3°F5.2°C 90% 7.0 mph SSW11.3 kmh SSW 10.1 mph16.3 kmh 30.23 in1023.7 mb 0.00 in0.0 mm 0.00 in0.0 mm 0.00 in0.0 mm
12:10 PM 44.1°F6.7°C 41.0°F5.0°C 89% 7.1 mph SSW11.4 kmh SSW 10.1 mph16.3 kmh 30.23 in1023.7 mb 0.00 in0.0 mm 0.00 in0.0 mm 0.00 in0.0 mm
12:20 PM 44.2°F6.8°C 40.9°F4.9°C 88% 7.0 mph SSW11.3 kmh SSW 9.1 mph14.6 kmh 30.23 in1023.7 mb 0.00 in0.0 mm 0.00 in0.0 mm 0.00 in0.0 mm
12:30 PM 44.4°F6.9°C 40.8°F4.9°C 87% 6.8 mph SSW10.9 kmh SSW 9.1 mph14.6 kmh 30.23 in1023.7 mb 0.00 in0.0 mm 0.00 in0.0 mm 0.00 in0.0 mm
12:40 PM 44.8°F7.1°C 39.3°F4.1°C 81% 8.4 mph WSW13.5 kmh WSW 10.1 mph16.3 kmh 30.23 in1023.7 mb 0.00 in0.0 mm 0.00 in0.0 mm 0.00 in0.0 mm
12:50 PM 45.0°F7.2°C 39.2°F4.0°C 80% 3.8 mph SSW6.1 kmh SSW 8.4 mph13.5 kmh 30.23 in1023.7 mb 0.00 in0.0 mm 0.00 in0.0 mm 0.00 in0.0 mm
01:00 PM 45.3°F7.4°C 39.5°F4.2°C 80% 4.7 mph W7.6 kmh W 6.6 mph10.6 kmh 30.22 in1023.4 mb 0.00 in0.0 mm 0.00 in0.0 mm 0.00 in0.0 mm
01:10 PM 45.5°F7.5°C 39.4°F4.1°C 79% 8.1 mph SW13.0 kmh SW 6.6 mph10.6 kmh 30.21 in1023.0 mb 0.00 in0.0 mm 0.00 in0.0 mm 0.00 in0.0 mm
01:20 PM 45.7°F7.6°C 39.5°F4.2°C 79% 7.1 mph SW11.4 kmh SW 7.6 mph12.2 kmh 30.21 in1023.0 mb 0.00 in0.0 mm 0.00 in0.0 mm 0.00 in0.0 mm
01:30 PM 46.0°F7.8°C 39.9°F4.4°C 79% 6.2 mph S10.0 kmh S 6.6 mph10.6 kmh 30.21 in1023.0 mb 0.00 in0.0 mm 0.00 in0.0 mm 0.00 in0.0 mm
01:40 PM 46.2°F7.9°C 40.1°F4.5°C 79% 3.9 mph SW6.3 kmh SW 5.9 mph9.5 kmh 30.21 in1023.0 mb 0.00 in0.0 mm 0.00 in0.0 mm 0.00 in0.0 mm
01:50 PM 46.6°F8.1°C 40.4°F4.7°C 79% 3.7 mph SW6.0 kmh SW 6.6 mph10.6 kmh 30.21 in1023.0 mb 0.00 in0.0 mm 0.00 in0.0 mm 0.00 in0.0 mm
02:00 PM 46.9°F8.3°C 40.4°F4.7°C 78% 5.5 mph SSW8.9 kmh SSW 5.9 mph9.5 kmh 30.21 in1023.0 mb 0.00 in0.0 mm 0.00 in0.0 mm 0.00 in0.0 mm
02:10 PM 46.9°F8.3°C 40.1°F4.5°C 77% 4.7 mph SW7.6 kmh SW 6.6 mph10.6 kmh 30.22 in1023.4 mb 0.00 in0.0 mm 0.00 in0.0 mm 0.00 in0.0 mm
02:20 PM 47.1°F8.4°C 39.9°F4.4°C 76% 4.5 mph SSW7.2 kmh SSW 5.9 mph9.5 kmh 30.21 in1023.0 mb 0.00 in0.0 mm 0.00 in0.0 mm 0.00 in0.0 mm
02:30 PM 47.1°F8.4°C 39.6°F4.2°C 75% 6.5 mph SSW10.5 kmh SSW 6.6 mph10.6 kmh 30.22 in1023.4 mb 0.00 in0.0 mm 0.00 in0.0 mm 0.00 in0.0 mm
02:40 PM 47.1°F8.4°C 39.6°F4.2°C 75% 5.4 mph WSW8.7 kmh WSW 5.9 mph9.5 kmh 30.23 in1023.7 mb 0.00 in0.0 mm 0.00 in0.0 mm 0.00 in0.0 mm
02:50 PM 47.1°F8.4°C 39.6°F4.2°C 75% 5.4 mph SW8.7 kmh SW 5.9 mph9.5 kmh 30.23 in1023.7 mb 0.00 in0.0 mm 0.00 in0.0 mm 0.00 in0.0 mm
03:00 PM 46.9°F8.3°C 39.4°F4.1°C 75% 3.4 mph SW5.5 kmh SW 4.9 mph7.9 kmh 30.22 in1023.4 mb 0.00 in0.0 mm 0.00 in0.0 mm 0.00 in0.0 mm
03:10 PM 46.8°F8.2°C 39.3°F4.1°C 75% 3.4 mph S5.5 kmh S 4.2 mph6.8 kmh 30.22 in1023.4 mb 0.00 in0.0 mm 0.00 in0.0 mm 0.00 in0.0 mm
03:20 PM 46.4°F8.0°C 38.9°F3.8°C 75% 4.2 mph SW6.8 kmh SW 5.9 mph9.5 kmh 30.23 in1023.7 mb 0.00 in0.0 mm 0.00 in0.0 mm 0.00 in0.0 mm
03:30 PM 46.0°F7.8°C 38.6°F3.7°C 75% 4.3 mph SSW6.9 kmh SSW 5.9 mph9.5 kmh 30.23 in1023.7 mb 0.00 in0.0 mm 0.00 in0.0 mm 0.00 in0.0 mm
03:40 PM 45.7°F7.6°C 38.2°F3.4°C 75% 2.5 mph SW4.0 kmh SW 3.4 mph5.5 kmh 30.24 in1024.0 mb 0.00 in0.0 mm 0.00 in0.0 mm 0.00 in0.0 mm
03:50 PM 45.5°F7.5°C 38.0°F3.3°C 75% 5.3 mph SSW8.5 kmh SSW 6.6 mph10.6 kmh 30.24 in1024.0 mb 0.00 in0.0 mm 0.00 in0.0 mm 0.00 in0.0 mm
04:00 PM 45.1°F7.3°C 37.7°F3.2°C 75% 4.2 mph WSW6.8 kmh WSW 4.9 mph7.9 kmh 30.24 in1024.0 mb 0.00 in0.0 mm 0.00 in0.0 mm 0.00 in0.0 mm
04:10 PM 44.8°F7.1°C 37.3°F2.9°C 75% 2.8 mph SW4.5 kmh SW 4.9 mph7.9 kmh 30.24 in1024.0 mb 0.00 in0.0 mm 0.00 in0.0 mm 0.00 in0.0 mm
04:20 PM 44.4°F6.9°C 39.0°F3.9°C 81% 1.3 mph W2.1 kmh W 4.2 mph6.8 kmh 30.24 in1024.0 mb 0.00 in0.0 mm 0.00 in0.0 mm 0.00 in0.0 mm
04:30 PM 43.9°F6.6°C 38.4°F3.6°C 81% 1.0 mph W1.6 kmh W 3.4 mph5.5 kmh 30.25 in1024.4 mb 0.00 in0.0 mm 0.00 in0.0 mm 0.00 in0.0 mm
04:40 PM 43.5°F6.4°C 38.1°F3.4°C 81% 0.8 mph WSW1.3 kmh WSW 3.4 mph5.5 kmh 30.26 in1024.7 mb 0.00 in0.0 mm 0.00 in0.0 mm 0.00 in0.0 mm
04:50 PM 43.0°F6.1°C 37.5°F3.1°C 81% 0.6 mph S1.0 kmh S 2.5 mph4.0 kmh 30.26 in1024.7 mb 0.00 in0.0 mm 0.00 in0.0 mm 0.00 in0.0 mm
05:00 PM 42.8°F6.0°C 37.7°F3.2°C 82% 0.7 mph SW1.1 kmh SW 1.7 mph2.7 kmh 30.27 in1025.1 mb 0.00 in0.0 mm 0.00 in0.0 mm 0.00 in0.0 mm
05:10 PM 42.4°F5.8°C 37.3°F2.9°C 82% Calm Calm 0.7 mph1.1 kmh 30.26 in1024.7 mb 0.00 in0.0 mm 0.00 in0.0 mm 0.00 in0.0 mm
05:20 PM 42.3°F5.7°C 37.2°F2.9°C 82% 0.3 mph SW0.5 kmh SW 1.7 mph2.7 kmh 30.27 in1025.1 mb 0.00 in0.0 mm 0.00 in0.0 mm 0.00 in0.0 mm
05:30 PM 41.5°F5.3°C 36.5°F2.5°C 82% 0.2 mph N0.3 kmh N 1.7 mph2.7 kmh 30.27 in1025.1 mb 0.00 in0.0 mm 0.00 in0.0 mm 0.00 in0.0 mm
05:40 PM 41.0°F5.0°C 35.9°F2.2°C 82% Calm Calm -- 30.28 in1025.4 mb 0.00 in0.0 mm 0.00 in0.0 mm 0.00 in0.0 mm
05:50 PM 40.8°F4.9°C 35.7°F2.1°C 82% Calm Calm 0.7 mph1.1 kmh 30.28 in1025.4 mb 0.00 in0.0 mm 0.00 in0.0 mm 0.00 in0.0 mm
06:00 PM 40.5°F4.7°C 35.7°F2.1°C 83% 0.4 mph NE0.6 kmh NE 1.7 mph2.7 kmh 30.29 in1025.7 mb 0.00 in0.0 mm 0.00 in0.0 mm 0.00 in0.0 mm
06:10 PM 40.8°F4.9°C 36.1°F2.3°C 83% 1.2 mph SSW1.9 kmh SSW 3.4 mph5.5 kmh 30.29 in1025.7 mb 0.00 in0.0 mm 0.00 in0.0 mm 0.00 in0.0 mm
06:20 PM 41.5°F5.3°C 37.1°F2.8°C 84% 0.2 mph S0.3 kmh S 1.7 mph2.7 kmh 30.30 in1026.1 mb 0.00 in0.0 mm 0.00 in0.0 mm 0.00 in0.0 mm
06:30 PM 41.9°F5.5°C 37.4°F3.0°C 84% Calm Calm 0.7 mph1.1 kmh 30.30 in1026.1 mb 0.00 in0.0 mm 0.00 in0.0 mm 0.00 in0.0 mm
06:40 PM 42.3°F5.7°C 38.1°F3.4°C 85% 0.8 mph SW1.3 kmh SW 2.5 mph4.0 kmh 30.29 in1025.7 mb 0.00 in0.0 mm 0.00 in0.0 mm 0.00 in0.0 mm
06:50 PM 42.6°F5.9°C 38.4°F3.6°C 85% 2.0 mph SW3.2 kmh SW 2.5 mph4.0 kmh 30.29 in1025.7 mb 0.00 in0.0 mm 0.00 in0.0 mm 0.00 in0.0 mm
07:00 PM 42.6°F5.9°C 38.4°F3.6°C 85% 1.0 mph W1.6 kmh W 1.7 mph2.7 kmh 30.30 in1026.1 mb 0.00 in0.0 mm 0.00 in0.0 mm 0.00 in0.0 mm
07:10 PM 42.6°F5.9°C 38.4°F3.6°C 85% 1.2 mph SW1.9 kmh SW 1.7 mph2.7 kmh 30.31 in1026.4 mb 0.00 in0.0 mm 0.00 in0.0 mm 0.00 in0.0 mm
07:20 PM 42.4°F5.8°C 38.2°F3.4°C 85% 1.1 mph SW1.8 kmh SW 1.7 mph2.7 kmh 30.31 in1026.4 mb 0.00 in0.0 mm 0.00 in0.0 mm 0.00 in0.0 mm
07:30 PM 42.4°F5.8°C 38.2°F3.4°C 85% 0.9 mph WSW1.4 kmh WSW 2.5 mph4.0 kmh 30.31 in1026.4 mb 0.00 in0.0 mm 0.00 in0.0 mm 0.00 in0.0 mm
07:40 PM 42.6°F5.9°C 38.4°F3.6°C 85% 1.4 mph SW2.3 kmh SW 3.4 mph5.5 kmh 30.32 in1026.8 mb 0.00 in0.0 mm 0.00 in0.0 mm 0.00 in0.0 mm
07:50 PM 43.2°F6.2°C 39.0°F3.9°C 85% 3.2 mph SW5.1 kmh SW 4.2 mph6.8 kmh 30.32 in1026.8 mb 0.00 in0.0 mm 0.00 in0.0 mm 0.00 in0.0 mm
08:00 PM 43.2°F6.2°C 39.0°F3.9°C 85% 2.3 mph SSW3.7 kmh SSW 4.2 mph6.8 kmh 30.32 in1026.8 mb 0.00 in0.0 mm 0.00 in0.0 mm 0.00 in0.0 mm
08:10 PM 43.0°F6.1°C 38.8°F3.8°C 85% 2.4 mph W3.9 kmh W 3.4 mph5.5 kmh 30.32 in1026.8 mb 0.00 in0.0 mm 0.00 in0.0 mm 0.00 in0.0 mm
08:20 PM 43.0°F6.1°C 38.8°F3.8°C 85% 2.2 mph SSW3.5 kmh SSW 3.4 mph5.5 kmh 30.32 in1026.8 mb 0.00 in0.0 mm 0.00 in0.0 mm 0.00 in0.0 mm
08:30 PM 42.8°F6.0°C 38.6°F3.7°C 85% 2.9 mph SW4.7 kmh SW 3.4 mph5.5 kmh 30.32 in1026.8 mb 0.00 in0.0 mm 0.00 in0.0 mm 0.00 in0.0 mm
08:40 PM 42.6°F5.9°C 38.1°F3.4°C 84% 1.5 mph SSW2.4 kmh SSW 3.4 mph5.5 kmh 30.33 in1027.1 mb 0.00 in0.0 mm 0.00 in0.0 mm 0.00 in0.0 mm
08:50 PM 42.6°F5.9°C 38.1°F3.4°C 84% 3.2 mph WSW5.1 kmh WSW 3.4 mph5.5 kmh 30.32 in1026.8 mb 0.00 in0.0 mm 0.00 in0.0 mm 0.00 in0.0 mm
09:00 PM 42.4°F5.8°C 37.9°F3.3°C 84% 1.8 mph S2.9 kmh S 3.4 mph5.5 kmh 30.32 in1026.8 mb 0.00 in0.0 mm 0.00 in0.0 mm 0.00 in0.0 mm
09:10 PM 42.3°F5.7°C 37.8°F3.2°C 84% 2.4 mph S3.9 kmh S 2.5 mph4.0 kmh 30.34 in1027.4 mb 0.00 in0.0 mm 0.00 in0.0 mm 0.00 in0.0 mm
09:20 PM 42.3°F5.7°C 37.8°F3.2°C 84% 1.2 mph SSW1.9 kmh SSW 1.7 mph2.7 kmh 30.34 in1027.4 mb 0.00 in0.0 mm 0.00 in0.0 mm 0.00 in0.0 mm
09:30 PM 42.1°F5.6°C 37.6°F3.1°C 84% 0.6 mph S1.0 kmh S 1.7 mph2.7 kmh 30.34 in1027.4 mb 0.00 in0.0 mm 0.00 in0.0 mm 0.00 in0.0 mm
09:40 PM 41.9°F5.5°C 37.4°F3.0°C 84% 1.1 mph WSW1.8 kmh WSW 3.4 mph5.5 kmh 30.35 in1027.8 mb 0.00 in0.0 mm 0.00 in0.0 mm 0.00 in0.0 mm
09:50 PM 41.9°F5.5°C 37.7°F3.2°C 85% 1.4 mph SW2.3 kmh SW 3.4 mph5.5 kmh 30.36 in1028.1 mb 0.00 in0.0 mm 0.00 in0.0 mm 0.00 in0.0 mm
10:00 PM 42.1°F5.6°C 37.9°F3.3°C 85% 1.1 mph SW1.8 kmh SW 2.5 mph4.0 kmh 30.36 in1028.1 mb 0.00 in0.0 mm 0.00 in0.0 mm 0.00 in0.0 mm
10:10 PM 42.3°F5.7°C 38.1°F3.4°C 85% 2.3 mph SW3.7 kmh SW 3.4 mph5.5 kmh 30.36 in1028.1 mb 0.00 in0.0 mm 0.00 in0.0 mm 0.00 in0.0 mm
10:20 PM 42.3°F5.7°C 38.1°F3.4°C 85% 2.0 mph WSW3.2 kmh WSW 3.4 mph5.5 kmh 30.35 in1027.8 mb 0.00 in0.0 mm 0.00 in0.0 mm 0.00 in0.0 mm
10:30 PM 42.3°F5.7°C 38.1°F3.4°C 85% 1.3 mph WSW2.1 kmh WSW 2.5 mph4.0 kmh 30.36 in1028.1 mb 0.00 in0.0 mm 0.00 in0.0 mm 0.00 in0.0 mm
10:40 PM 42.3°F5.7°C 38.1°F3.4°C 85% 1.5 mph WSW2.4 kmh WSW 2.5 mph4.0 kmh 30.36 in1028.1 mb 0.00 in0.0 mm 0.00 in0.0 mm 0.00 in0.0 mm
10:50 PM 42.3°F5.7°C 38.1°F3.4°C 85% 1.5 mph SSW2.4 kmh SSW 2.5 mph4.0 kmh 30.36 in1028.1 mb 0.00 in0.0 mm 0.00 in0.0 mm 0.00 in0.0 mm
11:00 PM 42.1°F5.6°C 37.9°F3.3°C 85% 0.9 mph S1.4 kmh S 1.7 mph2.7 kmh 30.36 in1028.1 mb 0.00 in0.0 mm 0.00 in0.0 mm 0.00 in0.0 mm
11:10 PM 41.7°F5.4°C 37.5°F3.1°C 85% 0.3 mph SW0.5 kmh SW 1.7 mph2.7 kmh 30.36 in1028.1 mb 0.00 in0.0 mm 0.00 in0.0 mm 0.00 in0.0 mm
11:20 PM 41.5°F5.3°C 37.4°F3.0°C 85% 1.3 mph SW2.1 kmh SW 2.5 mph4.0 kmh 30.36 in1028.1 mb 0.00 in0.0 mm 0.00 in0.0 mm 0.00 in0.0 mm
11:30 PM 41.4°F5.2°C 37.2°F2.9°C 85% 1.2 mph SW1.9 kmh SW 2.5 mph4.0 kmh 30.37 in1028.4 mb 0.00 in0.0 mm 0.00 in0.0 mm 0.00 in0.0 mm
11:40 PM 41.4°F5.2°C 37.2°F2.9°C 85% 1.8 mph WSW2.9 kmh WSW 3.4 mph5.5 kmh 30.37 in1028.4 mb 0.00 in0.0 mm 0.00 in0.0 mm 0.00 in0.0 mm
11:50 PM 41.4°F5.2°C 37.5°F3.1°C 86% 1.4 mph SW2.3 kmh SW 3.4 mph5.5 kmh 30.37 in1028.4 mb 0.00 in0.0 mm 0.00 in0.0 mm 0.00 in0.0 mm